createdAt,value
2023-02-19T00:01:54.305Z,-10.11
2023-02-19T00:04:23.088Z,-9.89
2023-02-19T00:06:50.888Z,-9.91
2023-02-19T00:09:19.612Z,-9.96
2023-02-19T00:11:48.138Z,-10.00
2023-02-19T00:14:17.828Z,-10.02
2023-02-19T00:16:46.283Z,-10.04
2023-02-19T00:19:16.514Z,-10.16
2023-02-19T00:21:44.849Z,-10.26
2023-02-19T00:24:13.568Z,-10.36
2023-02-19T00:26:42.257Z,-10.48
2023-02-19T00:29:13.913Z,-10.64
2023-02-19T00:31:42.683Z,-10.76
2023-02-19T00:34:11.218Z,-11.01
2023-02-19T00:36:39.893Z,-11.11
2023-02-19T00:39:08.269Z,-11.16
2023-02-19T00:41:36.413Z,-11.21
2023-02-19T00:44:06.588Z,-11.22
2023-02-19T00:46:39.792Z,-11.22
2023-02-19T00:49:09.620Z,-11.15
2023-02-19T00:51:38.642Z,-11.13
2023-02-19T00:54:06.510Z,-11.18
2023-02-19T00:56:34.915Z,-11.20
2023-02-19T00:59:02.992Z,-11.19
2023-02-19T01:01:31.829Z,-11.07
2023-02-19T01:03:59.547Z,-10.95
2023-02-19T01:06:30.579Z,-10.88
2023-02-19T01:08:58.724Z,-10.74
2023-02-19T01:11:27.679Z,-10.59
2023-02-19T01:13:59.648Z,-10.46
2023-02-19T01:16:28.035Z,-10.32
2023-02-19T01:18:57.212Z,-10.14
2023-02-19T01:21:26.503Z,-10.02
2023-02-19T01:23:54.366Z,-9.95
2023-02-19T01:26:24.086Z,-9.91
2023-02-19T01:28:52.238Z,-9.85
2023-02-19T01:31:22.184Z,-9.81
2023-02-19T01:33:55.178Z,-9.83
2023-02-19T01:36:23.413Z,-9.79
2023-02-19T01:38:51.336Z,-9.66
2023-02-19T01:41:21.685Z,-9.63
2023-02-19T01:44:10.037Z,-9.67
2023-02-19T01:46:39.779Z,-9.64
2023-02-19T01:49:13.255Z,-9.53
2023-02-19T01:52:02.203Z,-9.25
2023-02-19T01:54:33.479Z,-9.04
2023-02-19T01:57:02.394Z,-8.83
2023-02-19T01:59:31.712Z,-8.65
2023-02-19T02:01:59.889Z,-8.57
2023-02-19T02:04:27.670Z,-8.49
2023-02-19T02:06:58.848Z,-8.46
2023-02-19T02:09:46.736Z,-8.42
2023-02-19T02:12:14.664Z,-8.38
2023-02-19T02:14:44.904Z,-8.31
2023-02-19T02:17:40.941Z,-8.24
2023-02-19T02:20:08.645Z,-8.29
2023-02-19T02:22:50.358Z,-8.30
2023-02-19T02:25:40.041Z,-8.23
2023-02-19T02:28:45.321Z,-8.18
2023-02-19T02:31:17.673Z,-8.18
2023-02-19T02:34:06.787Z,-8.23
2023-02-19T02:36:37.653Z,-8.19
2023-02-19T02:39:07.735Z,-8.18
2023-02-19T02:41:44.965Z,-8.19
2023-02-19T02:44:13.885Z,-8.11
2023-02-19T02:46:42.896Z,-8.00
2023-02-19T02:49:17.337Z,-7.92
2023-02-19T02:51:48.293Z,-8.00
2023-02-19T02:54:57.746Z,-8.06
2023-02-19T02:57:25.887Z,-8.13
2023-02-19T02:59:56.526Z,-8.15
2023-02-19T03:02:27.269Z,-8.18
2023-02-19T03:05:34.317Z,-8.18
2023-02-19T03:08:17.182Z,-8.07
2023-02-19T03:10:53.453Z,-7.91
2023-02-19T03:13:49.942Z,-7.83
2023-02-19T03:16:41.086Z,-7.75
2023-02-19T03:19:20.480Z,-7.65
2023-02-19T03:21:59.732Z,-7.31
2023-02-19T03:24:52.008Z,-7.11
2023-02-19T03:27:20.438Z,-6.92
2023-02-19T03:29:52.788Z,-6.54
2023-02-19T03:32:36.423Z,-6.06
2023-02-19T03:35:14.925Z,-5.56
2023-02-19T03:38:10.566Z,-5.17
2023-02-19T03:40:51.488Z,-4.92
2023-02-19T03:43:54.644Z,-4.79
2023-02-19T03:46:47.437Z,-5.02
2023-02-19T03:49:45.509Z,-5.23
2023-02-19T03:52:46.681Z,-5.27
2023-02-19T03:55:25.495Z,-5.01
2023-02-19T03:58:12.259Z,-4.75
2023-02-19T04:00:41.909Z,-4.71
2023-02-19T04:04:00.934Z,-4.77
2023-02-19T04:06:30.901Z,-4.97
2023-02-19T04:09:01.692Z,-4.94
2023-02-19T04:11:31.126Z,-4.83
2023-02-19T04:14:11.134Z,-4.67
2023-02-19T04:16:42.527Z,-4.58
2023-02-19T04:19:12.361Z,-4.50
2023-02-19T04:21:40.715Z,-4.41
2023-02-19T04:24:12.142Z,-4.26
2023-02-19T04:26:39.829Z,-4.24
2023-02-19T04:29:07.566Z,-4.24
2023-02-19T04:31:36.303Z,-4.35
2023-02-19T04:34:04.623Z,-4.54
2023-02-19T04:36:33.155Z,-4.64
2023-02-19T04:39:01.421Z,-4.61
2023-02-19T04:41:29.706Z,-4.57
2023-02-19T04:43:58.114Z,-4.53
2023-02-19T04:46:25.972Z,-4.52
2023-02-19T04:48:54.122Z,-4.46
2023-02-19T04:51:22.251Z,-4.45
2023-02-19T04:53:50.340Z,-4.46
2023-02-19T04:56:18.174Z,-4.51
2023-02-19T04:58:46.070Z,-4.57
2023-02-19T05:01:15.053Z,-4.70
2023-02-19T05:03:43.251Z,-4.86
2023-02-19T05:06:13.016Z,-4.92
2023-02-19T05:08:41.456Z,-5.00
2023-02-19T05:11:11.216Z,-5.13
2023-02-19T05:13:39.677Z,-5.19
2023-02-19T05:16:09.036Z,-5.12
2023-02-19T05:18:36.823Z,-4.97
2023-02-19T05:21:05.146Z,-4.72
2023-02-19T05:23:33.162Z,-4.64
2023-02-19T05:26:05.898Z,-4.56
2023-02-19T05:28:33.969Z,-4.30
2023-02-19T05:31:05.646Z,-4.17
2023-02-19T05:33:33.809Z,-4.01
2023-02-19T05:36:05.741Z,-3.88
2023-02-19T05:38:34.177Z,-3.85
2023-02-19T05:41:19.778Z,-3.86
2023-02-19T05:43:48.970Z,-3.89
2023-02-19T05:46:20.191Z,-3.95
2023-02-19T05:48:48.962Z,-4.03
2023-02-19T05:51:18.315Z,-4.09
2023-02-19T05:53:46.476Z,-4.16
2023-02-19T05:56:36.531Z,-4.05
2023-02-19T05:59:24.066Z,-3.89
2023-02-19T06:01:52.488Z,-3.66
2023-02-19T06:04:20.814Z,-3.55
2023-02-19T06:06:48.794Z,-3.63
2023-02-19T06:09:16.856Z,-3.39
2023-02-19T06:11:44.935Z,-3.07
2023-02-19T06:14:14.199Z,-2.92
2023-02-19T06:16:42.292Z,-2.78
2023-02-19T06:19:10.436Z,-2.52
2023-02-19T06:21:38.790Z,-2.35
2023-02-19T06:24:08.562Z,-2.12
2023-02-19T06:26:36.973Z,-1.86
2023-02-19T06:29:04.884Z,-1.58
2023-02-19T06:31:34.658Z,-1.38
2023-02-19T06:34:05.388Z,-1.15
2023-02-19T06:36:33.320Z,-1.17
2023-02-19T06:39:01.594Z,-1.28
2023-02-19T06:41:29.434Z,-1.43
2023-02-19T06:44:00.283Z,-1.54
2023-02-19T06:46:28.309Z,-1.56
2023-02-19T06:48:57.122Z,-1.48
2023-02-19T06:51:27.826Z,-1.38
2023-02-19T06:53:55.826Z,-1.39
2023-02-19T06:56:23.875Z,-1.68
2023-02-19T06:58:52.629Z,-2.05
2023-02-19T07:01:21.408Z,-2.37
2023-02-19T07:03:49.427Z,-2.64
2023-02-19T07:06:17.274Z,-2.89
2023-02-19T07:08:45.571Z,-3.06
2023-02-19T07:11:13.773Z,-3.10
2023-02-19T07:13:41.585Z,-3.08
2023-02-19T07:16:10.499Z,-3.13
2023-02-19T07:18:38.674Z,-3.16
2023-02-19T07:21:11.511Z,-3.08
2023-02-19T07:23:39.719Z,-3.12
2023-02-19T07:26:14.768Z,-3.13
2023-02-19T07:28:46.795Z,-3.11
2023-02-19T07:31:15.385Z,-3.12
2023-02-19T07:33:47.236Z,-3.23
2023-02-19T07:36:15.780Z,-3.36
2023-02-19T07:38:43.824Z,-3.46
2023-02-19T07:41:12.059Z,-3.55
2023-02-19T07:43:40.186Z,-3.56
2023-02-19T07:46:10.343Z,-3.57
2023-02-19T07:48:38.774Z,-3.62
2023-02-19T07:51:08.325Z,-3.65
2023-02-19T07:53:36.698Z,-3.58
2023-02-19T07:56:06.094Z,-3.45
2023-02-19T07:58:34.090Z,-3.43
2023-02-19T08:01:40.952Z,-3.47
2023-02-19T08:04:12.833Z,-3.47
2023-02-19T08:06:40.983Z,-3.48
2023-02-19T08:09:08.901Z,-3.46
2023-02-19T08:11:55.377Z,-3.43
2023-02-19T08:14:27.230Z,-3.48
2023-02-19T08:16:55.681Z,-3.51
2023-02-19T08:19:23.603Z,-3.53
2023-02-19T08:21:51.952Z,-3.61
2023-02-19T08:24:20.057Z,-3.59
2023-02-19T08:26:48.239Z,-3.60
2023-02-19T08:29:15.947Z,-3.55
2023-02-19T08:31:44.030Z,-3.46
2023-02-19T08:34:12.154Z,-3.32
2023-02-19T08:36:40.313Z,-3.03
2023-02-19T08:39:08.561Z,-2.65
2023-02-19T08:41:37.034Z,-2.33
2023-02-19T08:44:04.974Z,-2.08
2023-02-19T08:46:34.415Z,-2.07
2023-02-19T08:49:02.907Z,-1.98
2023-02-19T08:51:30.675Z,-1.78
2023-02-19T08:53:58.762Z,-1.69
2023-02-19T08:56:26.813Z,-1.61
2023-02-19T08:58:55.574Z,-1.39
2023-02-19T09:01:24.260Z,-1.28
2023-02-19T09:03:52.182Z,-1.28
2023-02-19T09:06:20.920Z,-1.44
2023-02-19T09:08:49.116Z,-1.53
2023-02-19T09:11:17.330Z,-1.63
2023-02-19T09:13:45.309Z,-1.72
2023-02-19T09:16:13.199Z,-1.72
2023-02-19T09:18:41.328Z,-1.81
2023-02-19T09:21:09.996Z,-1.90
2023-02-19T09:23:38.245Z,-2.03
2023-02-19T09:26:09.296Z,-2.17
2023-02-19T09:28:37.933Z,-2.27
2023-02-19T09:31:07.490Z,-2.37
2023-02-19T09:33:35.678Z,-2.47
2023-02-19T09:36:03.994Z,-2.53
2023-02-19T09:38:32.197Z,-2.59
2023-02-19T09:41:00.176Z,-2.69
2023-02-19T09:43:28.830Z,-2.73
2023-02-19T09:46:03.650Z,-2.75
2023-02-19T09:48:31.484Z,-2.81
2023-02-19T09:50:59.670Z,-2.82
2023-02-19T09:53:30.154Z,-2.72
2023-02-19T09:55:57.990Z,-2.63
2023-02-19T09:58:27.532Z,-2.62
2023-02-19T10:00:56.111Z,-2.62
2023-02-19T10:03:31.521Z,-2.61
2023-02-19T10:06:05.140Z,-2.63
2023-02-19T10:08:35.278Z,-2.65
2023-02-19T10:11:04.170Z,-2.68
2023-02-19T10:14:10.826Z,-2.86
2023-02-19T10:16:42.868Z,-2.97
2023-02-19T10:19:18.887Z,-3.10
2023-02-19T10:21:46.799Z,-3.26
2023-02-19T10:24:21.471Z,-3.35
2023-02-19T10:26:50.639Z,-3.43
2023-02-19T10:29:20.058Z,-3.42
2023-02-19T10:31:48.490Z,-3.37
2023-02-19T10:34:22.614Z,-3.42
2023-02-19T10:36:51.553Z,-3.53
2023-02-19T10:39:45.279Z,-3.56
2023-02-19T10:42:21.430Z,-3.62
2023-02-19T10:44:59.257Z,-3.70
2023-02-19T10:47:27.724Z,-3.80
2023-02-19T10:49:57.517Z,-3.90
2023-02-19T10:52:27.070Z,-3.96
2023-02-19T10:55:16.533Z,-4.08
2023-02-19T10:57:44.464Z,-4.22
2023-02-19T11:00:30.847Z,-4.41
2023-02-19T11:03:15.303Z,-4.58
2023-02-19T11:06:03.187Z,-4.78
2023-02-19T11:08:31.600Z,-4.91
2023-02-19T11:10:59.727Z,-4.96
2023-02-19T11:13:33.389Z,-5.06
2023-02-19T11:16:01.566Z,-5.11
2023-02-19T11:18:31.662Z,-5.17
2023-02-19T11:21:01.114Z,-5.28
2023-02-19T11:23:50.268Z,-5.35
2023-02-19T11:26:23.671Z,-5.46
2023-02-19T11:29:02.033Z,-5.49
2023-02-19T11:31:33.859Z,-5.59
2023-02-19T11:34:02.455Z,-5.61
2023-02-19T11:36:39.717Z,-5.68
2023-02-19T11:39:10.776Z,-5.72
2023-02-19T11:42:03.272Z,-5.74
2023-02-19T11:44:37.154Z,-5.78
2023-02-19T11:47:26.948Z,-5.82
2023-02-19T11:50:09.460Z,-5.88
2023-02-19T11:52:43.408Z,-5.92
2023-02-19T11:55:18.514Z,-5.96
2023-02-19T11:58:03.607Z,-6.01
2023-02-19T12:00:31.772Z,-5.98
2023-02-19T12:03:21.828Z,-5.95
2023-02-19T12:06:04.990Z,-5.95
2023-02-19T12:08:42.154Z,-5.91
2023-02-19T12:11:19.144Z,-5.88
2023-02-19T12:14:19.035Z,-5.79
2023-02-19T12:17:02.621Z,-5.71
2023-02-19T12:19:33.465Z,-5.60
2023-02-19T12:22:41.982Z,-5.53
2023-02-19T12:25:29.336Z,-5.50
2023-02-19T12:28:10.190Z,-5.49
2023-02-19T12:31:00.454Z,-5.48
2023-02-19T12:33:46.863Z,-5.52
2023-02-19T12:36:59.897Z,-5.55
2023-02-19T12:39:40.084Z,-5.54
2023-02-19T12:42:11.979Z,-5.48
2023-02-19T12:44:47.516Z,-5.51
2023-02-19T12:47:21.415Z,-5.53
2023-02-19T12:50:17.462Z,-5.54
2023-02-19T12:52:47.276Z,-5.61
2023-02-19T12:55:36.998Z,-5.71
2023-02-19T12:58:06.581Z,-5.74
2023-02-19T13:00:45.817Z,-5.74
2023-02-19T13:03:23.602Z,-5.82
2023-02-19T13:06:22.409Z,-5.92
2023-02-19T13:09:19.354Z,-6.03
2023-02-19T13:12:06.235Z,-6.13
2023-02-19T13:14:43.133Z,-6.15
2023-02-19T13:17:25.152Z,-6.12
2023-02-19T13:19:58.058Z,-6.01
2023-02-19T13:23:01.640Z,-5.87
2023-02-19T13:25:56.671Z,-5.86
2023-02-19T13:28:43.304Z,-5.83
2023-02-19T13:31:41.217Z,-5.76
2023-02-19T13:34:33.613Z,-5.73
2023-02-19T13:37:01.791Z,-5.68
2023-02-19T13:39:31.135Z,-5.65
2023-02-19T13:42:02.192Z,-5.62
2023-02-19T13:44:34.265Z,-5.65
2023-02-19T13:47:06.834Z,-5.59
2023-02-19T13:49:35.034Z,-5.57
2023-02-19T13:52:24.908Z,-5.48
2023-02-19T13:54:53.505Z,-5.42
2023-02-19T13:57:24.916Z,-5.34
2023-02-19T14:00:02.083Z,-5.36
2023-02-19T14:02:35.946Z,-5.38
2023-02-19T14:05:11.575Z,-5.42
2023-02-19T14:07:51.369Z,-5.57
2023-02-19T14:10:58.413Z,-5.61
2023-02-19T14:13:52.437Z,-5.69
2023-02-19T14:16:50.133Z,-5.77
2023-02-19T14:19:43.353Z,-5.80
2023-02-19T14:22:48.303Z,-5.78
2023-02-19T14:25:31.501Z,-5.73
2023-02-19T14:28:08.140Z,-5.65
2023-02-19T14:30:52.899Z,-5.58
2023-02-19T14:33:26.164Z,-5.48
2023-02-19T14:36:22.981Z,-5.37
2023-02-19T14:39:28.316Z,-5.37
2023-02-19T14:42:16.863Z,-5.39
2023-02-19T14:44:53.263Z,-5.33
2023-02-19T14:47:22.551Z,-5.26
2023-02-19T14:49:51.894Z,-5.18
2023-02-19T14:52:25.557Z,-5.15
2023-02-19T14:55:02.275Z,-5.13
2023-02-19T14:57:34.521Z,-5.12
2023-02-19T15:00:20.320Z,-5.09
2023-02-19T15:02:48.537Z,-5.05
2023-02-19T15:05:23.652Z,-5.01
2023-02-19T15:07:52.037Z,-5.03
2023-02-19T15:10:20.251Z,-5.01
2023-02-19T15:12:52.770Z,-4.99
2023-02-19T15:15:26.631Z,-4.96
2023-02-19T15:17:54.835Z,-4.95
2023-02-19T15:20:27.978Z,-4.95
2023-02-19T15:22:56.723Z,-4.94
2023-02-19T15:25:26.779Z,-4.91
2023-02-19T15:27:54.987Z,-4.90
2023-02-19T15:30:29.755Z,-4.95
2023-02-19T15:32:59.705Z,-5.00
2023-02-19T15:35:28.842Z,-5.01
2023-02-19T15:37:56.821Z,-5.02
2023-02-19T15:40:33.379Z,-5.04
2023-02-19T15:43:01.603Z,-5.05
2023-02-19T15:45:29.702Z,-5.04
2023-02-19T15:48:08.874Z,-5.07
2023-02-19T15:50:40.265Z,-5.05
2023-02-19T15:53:10.637Z,-5.10
2023-02-19T15:55:48.787Z,-5.15
2023-02-19T15:58:28.874Z,-5.06
2023-02-19T16:01:00.107Z,-5.09
2023-02-19T16:03:28.458Z,-5.09
2023-02-19T16:06:15.681Z,-5.08
2023-02-19T16:08:48.284Z,-5.08
2023-02-19T16:11:25.332Z,-5.04
2023-02-19T16:13:53.932Z,-5.03
2023-02-19T16:16:27.265Z,-5.03
2023-02-19T16:18:55.347Z,-4.98
2023-02-19T16:21:26.269Z,-4.95
2023-02-19T16:24:15.132Z,-4.92
2023-02-19T16:26:43.757Z,-4.92
2023-02-19T16:29:28.780Z,-4.93
2023-02-19T16:31:59.093Z,-5.00
2023-02-19T16:34:35.007Z,-5.05
2023-02-19T16:37:03.449Z,-5.14
2023-02-19T16:39:31.292Z,-5.13
2023-02-19T16:42:02.663Z,-5.13
2023-02-19T16:44:31.587Z,-5.18
2023-02-19T16:47:04.384Z,-5.26
2023-02-19T16:49:31.918Z,-5.32
2023-02-19T16:51:59.937Z,-5.47
2023-02-19T16:54:28.527Z,-5.54
2023-02-19T16:56:56.853Z,-5.61
2023-02-19T16:59:25.071Z,-5.59
2023-02-19T17:01:53.227Z,-5.61
2023-02-19T17:04:21.269Z,-5.61
2023-02-19T17:06:49.054Z,-5.71
2023-02-19T17:09:16.945Z,-5.84
2023-02-19T17:11:44.729Z,-6.01
2023-02-19T17:14:12.434Z,-6.11
2023-02-19T17:16:40.866Z,-6.24
2023-02-19T17:19:17.455Z,-6.36
2023-02-19T17:21:45.833Z,-6.42
2023-02-19T17:24:13.932Z,-6.53
2023-02-19T17:26:41.840Z,-6.62
2023-02-19T17:29:14.339Z,-6.71
2023-02-19T17:31:42.564Z,-6.76
2023-02-19T17:34:10.822Z,-6.87
2023-02-19T17:36:38.709Z,-6.95
2023-02-19T17:39:14.981Z,-7.00
2023-02-19T17:41:42.756Z,-7.08
2023-02-19T17:44:11.178Z,-7.15
2023-02-19T17:46:39.499Z,-7.28
2023-02-19T17:49:07.884Z,-7.35
2023-02-19T17:51:36.066Z,-7.39
2023-02-19T17:54:04.554Z,-7.42
2023-02-19T17:56:33.270Z,-7.44
2023-02-19T17:59:01.004Z,-7.44
2023-02-19T18:01:28.945Z,-7.43
2023-02-19T18:03:56.811Z,-7.41
2023-02-19T18:06:24.585Z,-7.41
2023-02-19T18:08:53.606Z,-7.40
2023-02-19T18:11:23.672Z,-7.35
2023-02-19T18:13:51.989Z,-7.31
2023-02-19T18:16:20.387Z,-7.29
2023-02-19T18:18:48.226Z,-7.25
2023-02-19T18:21:16.648Z,-7.23
2023-02-19T18:23:46.416Z,-7.18
2023-02-19T18:26:19.224Z,-7.13
2023-02-19T18:28:47.236Z,-7.12
2023-02-19T18:31:15.644Z,-7.13
2023-02-19T18:33:43.962Z,-7.12
2023-02-19T18:36:13.131Z,-7.20
2023-02-19T18:38:41.164Z,-7.23
2023-02-19T18:41:12.937Z,-7.28
2023-02-19T18:43:42.505Z,-7.39
2023-02-19T18:46:10.493Z,-7.46
2023-02-19T18:48:38.436Z,-7.52
2023-02-19T18:51:09.789Z,-7.58
2023-02-19T18:53:38.470Z,-7.66
2023-02-19T18:56:09.322Z,-7.68
2023-02-19T18:58:37.399Z,-7.68
2023-02-19T19:01:05.739Z,-7.71
2023-02-19T19:03:33.596Z,-7.63
2023-02-19T19:06:03.718Z,-7.63
2023-02-19T19:08:31.915Z,-7.57
2023-02-19T19:10:59.860Z,-7.55
2023-02-19T19:13:27.797Z,-7.55
2023-02-19T19:15:55.547Z,-7.54
2023-02-19T19:18:23.903Z,-7.47
2023-02-19T19:20:51.935Z,-7.48
2023-02-19T19:23:19.729Z,-7.47
2023-02-19T19:25:47.781Z,-7.55
2023-02-19T19:28:15.559Z,-7.53
2023-02-19T19:30:43.775Z,-7.56
2023-02-19T19:33:12.110Z,-7.62
2023-02-19T19:35:41.854Z,-7.61
2023-02-19T19:38:10.482Z,-7.65
2023-02-19T19:40:39.053Z,-7.65
2023-02-19T19:43:06.943Z,-7.63
2023-02-19T19:45:35.107Z,-7.64
2023-02-19T19:48:02.865Z,-7.66
2023-02-19T19:50:31.321Z,-7.55
2023-02-19T19:52:59.709Z,-7.50
2023-02-19T19:55:27.428Z,-7.49
2023-02-19T19:57:55.168Z,-7.52
2023-02-19T20:00:24.857Z,-7.46
2023-02-19T20:02:53.394Z,-7.53
2023-02-19T20:05:21.345Z,-7.49
2023-02-19T20:07:50.368Z,-7.51
2023-02-19T20:10:19.935Z,-7.55
2023-02-19T20:12:48.131Z,-7.60
2023-02-19T20:15:20.849Z,-7.60
2023-02-19T20:17:49.350Z,-7.62
2023-02-19T20:20:18.492Z,-7.61
2023-02-19T20:22:46.796Z,-7.68
2023-02-19T20:25:14.783Z,-7.63
2023-02-19T20:27:43.125Z,-7.67
2023-02-19T20:30:12.553Z,-7.66
2023-02-19T20:32:40.940Z,-7.75
2023-02-19T20:35:08.742Z,-7.76
2023-02-19T20:37:40.279Z,-7.86
2023-02-19T20:40:08.613Z,-7.88
2023-02-19T20:42:36.636Z,-7.92
2023-02-19T20:45:05.869Z,-7.92
2023-02-19T20:47:33.632Z,-7.92
2023-02-19T20:50:01.912Z,-7.90
2023-02-19T20:52:30.181Z,-7.83
2023-02-19T20:54:58.229Z,-7.82
2023-02-19T20:57:25.931Z,-7.77
2023-02-19T20:59:54.378Z,-7.72
2023-02-19T21:02:24.981Z,-7.66
2023-02-19T21:04:52.806Z,-7.63
2023-02-19T21:07:20.773Z,-7.45
2023-02-19T21:09:48.817Z,-7.35
2023-02-19T21:12:17.301Z,-7.28
2023-02-19T21:14:45.382Z,-7.25
2023-02-19T21:17:13.465Z,-7.23
2023-02-19T21:19:41.840Z,-7.29
2023-02-19T21:22:09.909Z,-7.31
2023-02-19T21:24:38.137Z,-7.28
2023-02-19T21:27:05.839Z,-7.23
2023-02-19T21:29:33.739Z,-7.27
2023-02-19T21:32:02.165Z,-7.38
2023-02-19T21:34:30.870Z,-7.33
2023-02-19T21:37:00.417Z,-7.44
2023-02-19T21:39:28.601Z,-7.43
2023-02-19T21:41:58.949Z,-7.55
2023-02-19T21:44:27.049Z,-7.63
2023-02-19T21:46:54.840Z,-7.71
2023-02-19T21:49:22.896Z,-7.74
2023-02-19T21:51:50.998Z,-7.79
2023-02-19T21:54:22.121Z,-7.83
2023-02-19T21:56:49.928Z,-7.86
2023-02-19T21:59:17.761Z,-7.87
2023-02-19T22:01:46.172Z,-7.87
2023-02-19T22:04:15.806Z,-7.85
2023-02-19T22:06:43.727Z,-7.79
2023-02-19T22:09:11.751Z,-7.76
2023-02-19T22:11:39.504Z,-7.73
2023-02-19T22:14:07.626Z,-7.73
2023-02-19T22:16:35.327Z,-7.72
2023-02-19T22:19:03.564Z,-7.70
2023-02-19T22:21:33.263Z,-7.66
2023-02-19T22:24:02.181Z,-7.63
2023-02-19T22:26:35.235Z,-7.57
2023-02-19T22:29:08.421Z,-7.51
2023-02-19T22:31:36.891Z,-7.44
2023-02-19T22:34:04.865Z,-7.39
2023-02-19T22:36:33.980Z,-7.40
2023-02-19T22:39:02.616Z,-7.36
2023-02-19T22:41:31.017Z,-7.33
2023-02-19T22:43:59.417Z,-7.32
2023-02-19T22:46:31.043Z,-7.33
2023-02-19T22:48:58.952Z,-7.37
2023-02-19T22:51:26.676Z,-7.37
2023-02-19T22:53:56.060Z,-7.45
2023-02-19T22:56:27.759Z,-7.51
2023-02-19T22:58:56.709Z,-7.59
2023-02-19T23:01:24.660Z,-7.66
2023-02-19T23:03:54.943Z,-7.68
2023-02-19T23:06:27.810Z,-7.70
2023-02-19T23:08:57.023Z,-7.74
2023-02-19T23:11:30.468Z,-7.72
2023-02-19T23:13:58.350Z,-7.73
2023-02-19T23:16:26.522Z,-7.76
2023-02-19T23:18:55.036Z,-7.80
2023-02-19T23:21:23.129Z,-7.90
2023-02-19T23:23:51.512Z,-7.88
2023-02-19T23:26:20.222Z,-7.91
2023-02-19T23:28:48.504Z,-8.02
2023-02-19T23:31:16.645Z,-8.04
2023-02-19T23:33:44.954Z,-8.13
2023-02-19T23:36:13.313Z,-8.20
2023-02-19T23:38:41.422Z,-8.33
2023-02-19T23:41:12.558Z,-8.43
2023-02-19T23:43:40.743Z,-8.53
2023-02-19T23:46:08.865Z,-8.65
2023-02-19T23:48:37.192Z,-8.68
2023-02-19T23:51:05.173Z,-8.71
2023-02-19T23:53:33.290Z,-8.76
2023-02-19T23:56:01.006Z,-8.81
2023-02-19T23:58:29.230Z,-8.82
